createdAt,value
2023-03-08T00:01:19.939Z,74.40
2023-03-08T00:06:23.928Z,74.60
2023-03-08T00:11:27.775Z,74.80
2023-03-08T00:16:31.993Z,74.80
2023-03-08T00:21:35.167Z,74.90
2023-03-08T00:26:38.135Z,75.10
2023-03-08T00:31:42.588Z,75.20
2023-03-08T00:36:45.725Z,75.10
2023-03-08T00:41:48.565Z,74.90
2023-03-08T00:46:52.774Z,75.10
2023-03-08T00:51:55.629Z,75.10
2023-03-08T00:56:58.521Z,75.40
2023-03-08T01:02:03.028Z,75.50
2023-03-08T01:07:06.021Z,75.80
2023-03-08T01:12:09.179Z,75.90
2023-03-08T01:17:14.275Z,76.40
2023-03-08T01:22:17.358Z,76.20
2023-03-08T01:27:20.230Z,76.40
2023-03-08T01:32:24.448Z,77.00
2023-03-08T01:37:27.758Z,77.20
2023-03-08T01:42:30.985Z,77.40
2023-03-08T01:47:36.009Z,77.10
2023-03-08T01:52:50.504Z,77.20
2023-03-08T01:57:56.300Z,77.30
2023-03-08T02:03:05.547Z,77.40
2023-03-08T02:08:08.624Z,77.70
2023-03-08T02:13:14.123Z,77.90
2023-03-08T02:18:20.693Z,78.40
2023-03-08T02:23:26.486Z,78.70
2023-03-08T02:28:30.828Z,79.10
2023-03-08T02:33:34.854Z,79.00
2023-03-08T02:38:39.128Z,79.60
2023-03-08T02:43:42.053Z,79.40
2023-03-08T02:48:46.083Z,80.00
2023-03-08T02:53:50.500Z,80.80
2023-03-08T02:58:53.642Z,80.10
2023-03-08T03:03:58.342Z,80.40
2023-03-08T03:09:02.642Z,80.90
2023-03-08T03:14:05.866Z,80.80
2023-03-08T03:19:14.100Z,80.80
2023-03-08T03:24:18.587Z,81.00
2023-03-08T03:29:27.004Z,81.20
2023-03-08T03:34:38.234Z,81.90
2023-03-08T03:39:43.292Z,82.60
2023-03-08T03:44:49.449Z,82.70
2023-03-08T03:49:56.414Z,82.90
2023-03-08T03:55:02.273Z,82.90
2023-03-08T04:00:07.136Z,83.40
2023-03-08T04:05:16.522Z,83.40
2023-03-08T04:10:24.789Z,83.40
2023-03-08T04:15:29.022Z,83.80
2023-03-08T04:20:34.067Z,84.10
2023-03-08T04:25:44.717Z,84.10
2023-03-08T04:30:51.105Z,84.30
2023-03-08T04:35:56.859Z,84.90
2023-03-08T04:41:05.686Z,85.40
2023-03-08T04:46:31.542Z,85.80
2023-03-08T04:51:35.718Z,86.40
2023-03-08T04:56:42.486Z,87.40
2023-03-08T05:01:47.134Z,88.00
2023-03-08T05:06:50.079Z,88.60
2023-03-08T05:11:59.511Z,88.90
2023-03-08T05:17:11.115Z,89.90
2023-03-08T05:22:14.910Z,90.20
2023-03-08T05:27:24.245Z,90.60
2023-03-08T05:32:28.476Z,90.70
2023-03-08T05:37:31.511Z,91.00
2023-03-08T05:42:39.500Z,91.30
2023-03-08T05:47:43.221Z,91.50
2023-03-08T05:52:47.318Z,91.90
2023-03-08T05:57:56.348Z,93.20
2023-03-08T06:03:03.782Z,95.50
2023-03-08T06:08:08.176Z,99.60
2023-03-08T06:13:12.623Z,99.90
2023-03-08T06:18:15.727Z,99.90
2023-03-08T06:23:18.819Z,99.90
2023-03-08T06:28:23.885Z,99.90
2023-03-08T06:33:30.027Z,99.90
2023-03-08T06:38:34.997Z,99.90
2023-03-08T06:43:39.282Z,99.90
2023-03-08T06:48:42.350Z,99.90
2023-03-08T06:53:45.916Z,99.90
2023-03-08T06:58:52.338Z,99.90
2023-03-08T07:03:55.226Z,99.90
2023-03-08T07:08:58.225Z,99.90
2023-03-08T07:14:02.391Z,99.90
2023-03-08T07:19:05.261Z,99.90
2023-03-08T07:24:08.545Z,99.90
2023-03-08T07:29:12.732Z,99.90
2023-03-08T07:34:15.590Z,99.90
2023-03-08T07:39:18.444Z,99.90
2023-03-08T07:44:22.840Z,99.90
2023-03-08T07:49:25.966Z,99.90
2023-03-08T07:54:28.986Z,99.90
2023-03-08T07:59:33.363Z,99.90
2023-03-08T08:04:36.249Z,99.90
2023-03-08T08:09:39.338Z,99.90
2023-03-08T08:14:44.608Z,99.90
2023-03-08T08:19:47.571Z,99.90
2023-03-08T08:24:50.467Z,99.90
2023-03-08T08:29:54.643Z,99.90
2023-03-08T08:34:59.314Z,99.90
2023-03-08T08:40:03.957Z,99.90
2023-03-08T08:45:09.672Z,99.90
2023-03-08T08:50:14.137Z,99.90
2023-03-08T08:55:17.254Z,99.90
2023-03-08T09:00:21.758Z,99.90
2023-03-08T09:05:24.783Z,99.90
2023-03-08T09:10:29.243Z,99.90
2023-03-08T09:15:33.565Z,99.90
2023-03-08T09:20:36.491Z,99.90
2023-03-08T09:25:39.727Z,99.90
2023-03-08T09:30:43.929Z,99.90
2023-03-08T09:35:56.706Z,99.90
2023-03-08T09:41:13.121Z,99.90
2023-03-08T09:46:22.649Z,99.90
2023-03-08T09:51:30.407Z,99.90
2023-03-08T09:56:38.090Z,99.90
2023-03-08T10:01:49.453Z,99.90
2023-03-08T10:07:02.816Z,99.90
2023-03-08T10:12:18.999Z,99.90
2023-03-08T10:17:25.859Z,99.90
2023-03-08T10:22:31.238Z,99.90
2023-03-08T10:27:36.101Z,99.90
2023-03-08T10:32:44.938Z,99.90
2023-03-08T10:37:52.140Z,99.90
2023-03-08T10:43:00.959Z,99.90
2023-03-08T10:48:06.874Z,99.90
2023-03-08T10:53:11.217Z,99.90
2023-03-08T10:58:35.864Z,99.90
2023-03-08T11:03:40.075Z,99.90
2023-03-08T11:08:54.415Z,99.90
2023-03-08T11:13:57.279Z,99.90
2023-03-08T11:19:10.476Z,99.90
2023-03-08T11:24:22.650Z,99.90
2023-03-08T11:29:36.905Z,99.90
2023-03-08T11:34:58.530Z,99.90
2023-03-08T11:40:14.544Z,99.90
2023-03-08T11:45:23.671Z,99.90
2023-03-08T11:50:31.508Z,99.90
2023-03-08T11:55:47.033Z,99.90
2023-03-08T12:00:53.985Z,99.90
2023-03-08T12:06:01.846Z,99.90
2023-03-08T12:11:08.203Z,99.90
2023-03-08T12:16:18.842Z,99.90
2023-03-08T12:21:34.417Z,99.90
2023-03-08T12:26:43.715Z,99.90
2023-03-08T12:31:49.135Z,99.90
2023-03-08T12:36:53.431Z,99.90
2023-03-08T12:42:01.263Z,99.90
2023-03-08T12:47:20.728Z,99.90
2023-03-08T12:52:31.409Z,99.90
2023-03-08T12:57:42.834Z,99.90
2023-03-08T13:02:45.771Z,99.90
2023-03-08T13:08:01.768Z,99.90
2023-03-08T13:13:39.146Z,99.90
2023-03-08T13:18:43.358Z,99.90
2023-03-08T13:23:54.024Z,99.90
2023-03-08T13:28:57.630Z,99.90
2023-03-08T13:34:01.203Z,99.90
2023-03-08T13:39:07.451Z,99.90
2023-03-08T13:44:16.504Z,99.90
2023-03-08T13:49:23.826Z,99.90
2023-03-08T13:54:30.460Z,99.90
2023-03-08T13:59:34.654Z,99.90
2023-03-08T14:04:43.391Z,99.90
2023-03-08T14:09:47.646Z,99.90
2023-03-08T14:14:54.386Z,99.90
2023-03-08T14:19:58.817Z,99.90
2023-03-08T14:25:05.081Z,99.90
2023-03-08T14:30:15.624Z,99.90
2023-03-08T14:35:23.852Z,99.90
2023-03-08T14:40:31.471Z,99.90
2023-03-08T14:45:37.421Z,99.90
2023-03-08T14:50:40.353Z,99.90
2023-03-08T14:55:45.084Z,99.90
2023-03-08T15:00:51.565Z,99.90
2023-03-08T15:06:16.716Z,99.90
2023-03-08T15:11:21.509Z,99.90
2023-03-08T15:16:24.392Z,99.90
2023-03-08T15:21:30.387Z,99.90
2023-03-08T15:26:34.902Z,99.90
2023-03-08T15:31:37.807Z,99.90
2023-03-08T15:36:40.693Z,99.90
2023-03-08T15:41:45.123Z,99.90
2023-03-08T15:46:48.031Z,99.90
2023-03-08T15:51:50.886Z,99.90
2023-03-08T15:56:55.090Z,99.90
2023-03-08T16:01:58.047Z,99.90
2023-03-08T16:07:00.906Z,99.90
2023-03-08T16:12:05.637Z,99.90
2023-03-08T16:17:09.048Z,99.90
2023-03-08T16:22:12.482Z,99.90
2023-03-08T16:27:20.186Z,99.90
2023-03-08T16:32:23.327Z,99.90
2023-03-08T16:37:26.939Z,99.90
2023-03-08T16:42:31.317Z,99.90
2023-03-08T16:47:34.189Z,99.90
2023-03-08T16:52:37.048Z,99.90
2023-03-08T16:57:41.238Z,99.90
2023-03-08T17:02:45.397Z,99.90
2023-03-08T17:07:48.437Z,99.90
2023-03-08T17:12:52.681Z,99.90
2023-03-08T17:17:55.914Z,99.90
2023-03-08T17:22:58.802Z,99.90
2023-03-08T17:28:03.608Z,99.90
2023-03-08T17:33:06.763Z,99.90
2023-03-08T17:38:09.755Z,99.90
2023-03-08T17:43:14.111Z,99.90
2023-03-08T17:48:17.119Z,99.90
2023-03-08T17:53:20.294Z,99.90
2023-03-08T17:58:24.568Z,99.90
2023-03-08T18:03:27.436Z,99.90
2023-03-08T18:08:35.664Z,99.90
2023-03-08T18:13:40.911Z,99.90
2023-03-08T18:18:45.629Z,99.90
2023-03-08T18:23:49.145Z,99.90
2023-03-08T18:28:53.456Z,99.90
2023-03-08T18:33:56.379Z,99.90
2023-03-08T18:38:59.273Z,99.90
2023-03-08T18:44:03.540Z,99.90
2023-03-08T18:49:08.701Z,99.90
2023-03-08T18:54:13.439Z,99.90
2023-03-08T18:59:17.665Z,99.90
2023-03-08T19:04:20.594Z,99.90
2023-03-08T19:09:23.460Z,99.90
2023-03-08T19:14:27.758Z,99.90
2023-03-08T19:19:36.478Z,99.90
2023-03-08T19:24:39.433Z,99.90
2023-03-08T19:29:43.691Z,99.90
2023-03-08T19:34:48.394Z,99.90
2023-03-08T19:39:51.458Z,99.90
2023-03-08T19:44:55.823Z,99.90
2023-03-08T19:50:00.840Z,99.90
2023-03-08T19:55:05.086Z,99.90
2023-03-08T20:00:13.791Z,99.90
2023-03-08T20:05:18.565Z,99.90
2023-03-08T20:10:30.323Z,99.90
2023-03-08T20:15:47.720Z,99.90
2023-03-08T20:20:51.250Z,99.90
2023-03-08T20:25:54.332Z,99.90
2023-03-08T20:30:58.849Z,99.90
2023-03-08T20:36:02.021Z,99.90
2023-03-08T20:41:09.622Z,99.90
2023-03-08T20:46:16.072Z,99.90
2023-03-08T20:51:21.044Z,99.90
2023-03-08T20:56:25.905Z,99.90
2023-03-08T21:01:44.988Z,99.90
2023-03-08T21:06:48.834Z,99.90
2023-03-08T21:11:51.737Z,99.90
2023-03-08T21:16:56.019Z,99.90
2023-03-08T21:22:07.163Z,99.90
2023-03-08T21:27:10.010Z,99.90
2023-03-08T21:32:14.207Z,99.90
2023-03-08T21:37:17.064Z,99.90
2023-03-08T21:42:20.112Z,99.90
2023-03-08T21:47:24.321Z,99.90
2023-03-08T21:52:27.207Z,99.90
2023-03-08T21:57:30.096Z,99.90
2023-03-08T22:02:34.310Z,99.90
2023-03-08T22:07:37.186Z,99.90
2023-03-08T22:12:41.356Z,99.90
2023-03-08T22:17:45.547Z,99.90
2023-03-08T22:22:48.418Z,99.90
2023-03-08T22:27:51.330Z,99.90
2023-03-08T22:32:55.889Z,99.90
2023-03-08T22:37:58.855Z,99.90
2023-03-08T22:43:01.689Z,99.90
2023-03-08T22:48:06.864Z,99.90
2023-03-08T22:53:09.875Z,99.90
2023-03-08T22:58:12.742Z,99.90
2023-03-08T23:03:17.040Z,99.90
2023-03-08T23:08:19.954Z,99.90
2023-03-08T23:13:33.554Z,99.90
2023-03-08T23:18:38.653Z,99.90
2023-03-08T23:23:42.398Z,99.90
2023-03-08T23:28:45.528Z,99.90
2023-03-08T23:33:50.411Z,99.90
2023-03-08T23:38:53.309Z,99.90
2023-03-08T23:43:57.656Z,99.90
2023-03-08T23:49:02.779Z,99.90
2023-03-08T23:54:05.756Z,99.90
2023-03-08T23:59:12.484Z,99.90
